Time;durP1;ratioP1;P1;durP2;ratioP2;P2;SDS_P1;SDS_P2;PMS_P1;PMS_P2;Temp;Humidity;BMP_temperature;BMP_pressure;BME280_temperature;BME280_humidity;BME280_pressure;Samples;Min_cycle;Max_cycle;Signal;HPM_P1;HPM_P2
2022/05/27 00:00:54;;;;;;;12.50;2.90;;;;;;;20.01;54.12;95491.25;5007168;28;20061;-77
2022/05/27 00:03:19;;;;;;;7.93;3.40;;;;;;;20.02;54.01;95495.47;5011804;22;20038;-77
2022/05/27 00:05:48;;;;;;;17.77;6.38;;;;;;;20.05;54.12;95492.28;4990536;28;20186;-77
2022/05/27 00:08:13;;;;;;;46.65;24.63;;;;;;;20.07;54.12;95500.72;4969352;28;20030;-77
2022/05/27 00:10:39;;;;;;;56.17;31.90;;;;;;;20.06;53.98;95496.50;4970910;28;20050;-77
2022/05/27 00:13:05;;;;;;;42.25;26.63;;;;;;;20.04;54.06;95501.28;4970304;28;20426;-77
2022/05/27 00:15:30;;;;;;;38.55;21.52;;;;;;;20.04;54.20;95506.56;4970756;28;20030;-76
2022/05/27 00:17:55;;;;;;;25.80;14.77;;;;;;;20.02;54.12;95498.13;4985736;28;20042;-76
2022/05/27 00:20:21;;;;;;;20.33;12.18;;;;;;;20.02;53.87;95503.41;4952764;28;20039;-76
2022/05/27 00:22:47;;;;;;;15.27;9.38;;;;;;;20.02;53.84;95504.19;4969262;28;20414;-76
2022/05/27 00:25:13;;;;;;;25.30;8.48;;;;;;;20.01;54.03;95497.34;4969863;28;20039;-77
2022/05/27 00:27:38;;;;;;;14.57;6.70;;;;;;;20.03;53.63;95497.06;4969438;28;20038;-77
2022/05/27 00:30:04;;;;;;;6.70;4.82;;;;;;;20.02;53.29;95498.13;4969249;28;20045;-76
2022/05/27 00:32:30;;;;;;;7.28;3.80;;;;;;;20.01;53.46;95492.06;4969471;28;20491;-77
2022/05/27 00:34:55;;;;;;;7.35;3.15;;;;;;;19.99;53.51;95488.09;4951634;28;20035;-77
2022/05/27 00:37:21;;;;;;;14.18;3.95;;;;;;;19.99;54.21;95483.59;4970785;28;20030;-77
2022/05/27 00:39:46;;;;;;;9.52;3.05;;;;;;;19.97;53.99;95488.38;4970894;28;20039;-77
2022/05/27 00:42:12;;;;;;;6.45;3.30;;;;;;;19.94;53.52;95491.56;4953616;28;20577;-78
2022/05/27 00:44:37;;;;;;;8.85;3.13;;;;;;;19.92;53.66;95491.03;4968840;28;20161;-78
2022/05/27 00:47:11;;;;;;;5.38;3.40;;;;;;;19.90;53.75;95489.75;4972545;28;20035;-77
2022/05/27 00:49:51;;;;;;;9.95;4.68;;;;;;;19.84;54.52;95496.88;4972855;28;20030;-77
2022/05/27 00:52:18;;;;;;;5.55;3.58;;;;;;;19.79;54.88;95489.00;4955739;28;20043;-77
2022/05/27 00:54:43;;;;;;;8.85;4.13;;;;;;;19.77;54.83;95491.91;4967924;28;20122;-78
2022/05/27 00:57:24;;;;;;;7.35;3.50;;;;;;;19.73;55.09;95490.91;5040933;23;20128;-77
2022/05/27 00:59:51;;;;;;;8.20;3.58;;;;;;;19.67;55.39;95488.53;5037284;28;20441;-77
2022/05/27 01:02:18;;;;;;;9.50;3.60;;;;;;;19.59;55.36;95482.00;5032665;28;20064;-77
2022/05/27 01:04:44;;;;;;;5.95;3.53;;;;;;;19.57;55.73;95488.59;5028183;28;20033;-77
2022/05/27 01:07:09;;;;;;;9.80;3.72;;;;;;;19.52;55.91;95484.09;5011135;28;20417;-77
2022/05/27 01:09:36;;;;;;;7.43;3.70;;;;;;;19.46;56.03;95485.19;4994969;28;20037;-77
2022/05/27 01:12:22;;;;;;;15.70;3.47;;;;;;;19.40;56.17;95487.06;5027494;28;20060;-78
2022/05/27 01:14:51;;;;;;;6.30;3.35;;;;;;;19.34;56.63;95485.50;5028101;28;20049;-77
2022/05/27 01:17:44;;;;;;;6.63;3.03;;;;;;;19.31;56.85;95477.34;5029885;28;20037;-77
2022/05/27 01:20:20;;;;;;;11.25;3.45;;;;;;;19.23;56.69;95476.06;5032105;28;20116;-77
2022/05/27 01:23:07;;;;;;;7.35;3.13;;;;;;;19.18;56.91;95473.44;5030592;28;20057;-77
2022/05/27 01:25:41;;;;;;;19.60;3.80;;;;;;;19.15;56.95;95469.50;5033283;28;20033;-77
2022/05/27 01:28:34;;;;;;;5.40;3.72;;;;;;;19.12;57.81;95470.03;5031357;28;20079;-78
2022/05/27 01:31:09;;;;;;;14.60;4.10;;;;;;;19.08;57.68;95468.22;5032628;28;20577;-78
2022/05/27 01:33:34;;;;;;;6.63;4.07;;;;;;;19.06;57.75;95468.47;5031866;28;20029;-78
2022/05/27 01:36:45;;;;;;;5.72;3.88;;;;;;;19.04;57.97;95467.19;5031778;28;20029;-77
2022/05/27 01:39:22;;;;;;;10.93;4.63;;;;;;;18.96;58.44;95460.59;5078358;22;20054;-77
2022/05/27 01:41:57;;;;;;;13.07;5.30;;;;;;;18.90;58.65;95466.94;5012809;28;20042;-76
2022/05/27 01:44:55;;;;;;;8.30;4.63;;;;;;;18.89;58.37;95460.09;5009920;28;20040;-76
2022/05/27 01:47:45;;;;;;;10.88;3.83;;;;;;;18.84;57.46;95458.25;5008735;23;20088;-77
2022/05/27 01:50:16;;;;;;;8.10;3.45;;;;;;;18.85;57.17;95459.03;5044765;28;20084;-76
2022/05/27 01:53:00;;;;;;;3.55;3.15;;;;;;;18.86;56.60;95464.03;5053717;28;20033;-77
2022/05/27 01:55:29;;;;;;;13.98;3.70;;;;;;;18.86;56.32;95457.97;5071945;28;20041;-75
2022/05/27 01:58:07;;;;;;;10.98;4.20;;;;;;;18.88;56.59;95458.53;5024895;28;20032;-75
2022/05/27 02:00:33;;;;;;;9.48;4.15;;;;;;;18.87;57.15;95456.91;5024614;28;20068;-78
2022/05/27 02:03:02;;;;;;;7.00;3.72;;;;;;;18.84;57.79;95468.78;5022229;28;20560;-78
2022/05/27 02:05:31;;;;;;;6.22;3.55;;;;;;;18.84;57.73;95463.50;5010028;28;20037;-78
2022/05/27 02:08:09;;;;;;;11.68;4.35;;;;;;;18.78;58.00;95459.31;5042649;28;20095;-78
2022/05/27 02:10:35;;;;;;;16.23;4.18;;;;;;;18.70;58.44;95461.69;5043308;28;20068;-78
2022/05/27 02:13:28;;;;;;;5.47;3.63;;;;;;;18.64;58.52;95458.28;5024241;28;20118;-77
2022/05/27 02:15:54;;;;;;;6.55;3.97;;;;;;;18.58;58.71;95454.88;5046239;28;20048;-77
2022/05/27 02:18:41;;;;;;;9.35;3.50;;;;;;;18.53;58.47;95452.22;5058428;28;20040;-77
2022/05/27 02:21:11;;;;;;;7.65;3.50;;;;;;;18.45;59.20;95455.41;5046840;28;20040;-78
2022/05/27 02:23:43;;;;;;;6.20;3.20;;;;;;;18.41;59.01;95462.25;5044089;28;20029;-78
2022/05/27 02:26:16;;;;;;;11.88;3.42;;;;;;;18.38;58.40;95464.59;5050446;28;20600;-78
2022/05/27 02:28:43;;;;;;;19.67;3.03;;;;;;;18.31;56.85;95470.16;5024189;28;20053;-78
2022/05/27 02:31:14;;;;;;;7.82;3.05;;;;;;;18.23;56.71;95463.59;5024600;28;20025;-78
2022/05/27 02:36:28;;;;;;;8.80;3.22;;;;;;;18.13;57.83;95468.84;5065289;22;20098;-78
2022/05/27 02:38:53;;;;;;;11.82;3.17;;;;;;;18.15;58.45;95471.19;5020810;28;20091;-77
2022/05/27 02:41:45;;;;;;;7.22;3.25;;;;;;;18.18;59.29;95473.31;5020700;28;20421;-78
2022/05/27 02:44:32;;;;;;;6.60;3.90;;;;;;;18.11;60.24;95470.16;5020105;28;20041;-78
2022/05/27 02:47:06;;;;;;;5.78;3.85;;;;;;;18.04;60.74;95466.97;5022765;28;20096;-78
2022/05/27 02:49:47;;;;;;;7.80;4.40;;;;;;;18.03;60.80;95465.41;5022979;28;20029;-78
2022/05/27 02:52:40;;;;;;;10.07;4.70;;;;;;;18.04;60.86;95470.41;5022279;28;20061;-78
2022/05/27 02:55:24;;;;;;;7.32;4.35;;;;;;;18.07;60.71;95463.84;5023525;28;20108;-78
2022/05/27 02:57:49;;;;;;;11.27;4.13;;;;;;;18.06;60.59;95462.22;5046919;28;20033;-78
2022/05/27 03:00:18;;;;;;;5.22;4.00;;;;;;;18.07;60.75;95464.63;5030505;28;20049;-78
2022/05/27 03:02:44;;;;;;;5.43;4.82;;;;;;;18.14;60.73;95474.88;5022838;28;20935;-78
2022/05/27 03:05:09;;;;;;;12.18;4.88;;;;;;;18.19;60.68;95472.25;5030935;28;20038;-79
2022/05/27 03:07:38;;;;;;;17.60;5.82;;;;;;;18.25;60.36;95474.63;5083376;22;20053;-78
2022/05/27 03:10:15;;;;;;;20.52;4.60;;;;;;;18.26;60.24;95472.78;5024122;28;20029;-78
2022/05/27 03:13:00;;;;;;;8.25;4.38;;;;;;;18.35;60.06;95476.47;5023436;28;20045;-78
2022/05/27 03:15:50;;;;;;;11.75;4.97;;;;;;;18.42;59.89;95479.63;5030286;28;20049;-78
2022/05/27 03:18:36;;;;;;;7.22;4.55;;;;;;;18.53;59.31;95473.28;5044455;28;20037;-78
2022/05/27 03:21:01;;;;;;;22.38;5.93;;;;;;;18.63;58.40;95469.88;4989587;28;20050;-78
2022/05/27 03:23:43;;;;;;;13.70;4.88;;;;;;;18.74;57.86;95474.09;5022632;28;20038;-77
2022/05/27 03:26:12;;;;;;;;;;;;;;;18.87;57.87;95472.72;5044507;28;20048;-78
2022/05/27 03:28:43;;;;;;;11.85;4.60;;;;;;;18.95;58.41;95480.09;5021265;28;19932;-77
2022/05/27 03:31:17;;;;;;;13.88;4.88;;;;;;;19.06;57.86;95476.38;5044799;28;20458;-78
2022/05/27 03:34:01;;;;;;;15.88;4.75;;;;;;;19.26;57.59;95485.28;5045146;28;20033;-78
2022/05/27 03:36:56;;;;;;;21.77;5.30;;;;;;;19.43;57.26;95478.63;5042516;28;20042;-77
2022/05/27 03:39:24;;;;;;;16.88;5.50;;;;;;;19.56;56.73;95479.91;5027348;28;20026;-77
2022/05/27 03:42:01;;;;;;;29.75;5.20;;;;;;;19.74;56.58;95481.91;5007339;28;20041;-79
2022/05/27 03:44:29;;;;;;;18.80;5.82;;;;;;;19.91;56.34;95476.28;5027137;28;20505;-77
2022/05/27 03:46:56;;;;;;;24.70;11.57;;;;;;;20.10;56.13;95476.41;5024934;22;21851;-77
2022/05/27 03:49:21;;;;;;;21.27;7.03;;;;;;;20.23;55.92;95473.16;5043346;28;20049;-78
2022/05/27 03:51:52;;;;;;;43.20;7.47;;;;;;;20.45;54.89;95474.56;5005536;28;20483;-78
2022/05/27 03:54:18;;;;;;;41.42;7.10;;;;;;;20.64;54.29;95473.59;5028222;28;20034;-77
2022/05/27 03:56:43;;;;;;;39.20;7.38;;;;;;;20.83;53.69;95465.78;5009271;28;20401;-77
2022/05/27 03:59:11;;;;;;;25.48;5.43;;;;;;;21.07;52.51;95467.63;4995194;28;20065;-78
2022/05/27 04:01:37;;;;;;;21.15;4.72;;;;;;;21.84;50.53;95473.56;5011328;28;20051;-77
2022/05/27 04:04:04;;;;;;;11.60;4.50;;;;;;;22.71;47.68;95465.06;5010735;28;20026;-78
2022/05/27 04:06:30;;;;;;;9.65;4.00;;;;;;;23.03;46.39;95462.38;5028319;28;20393;-78
2022/05/27 04:08:55;;;;;;;16.15;4.22;;;;;;;23.06;46.43;95467.09;5028492;28;20025;-77
2022/05/27 04:11:21;;;;;;;7.07;4.32;;;;;;;23.01;46.51;95474.38;5012970;28;20037;-78
2022/05/27 04:13:47;;;;;;;10.02;3.90;;;;;;;22.99;45.80;95472.00;5030688;28;20068;-77
2022/05/27 04:16:12;;;;;;;10.50;3.90;;;;;;;22.89;45.57;95476.72;5028787;28;20057;-77
2022/05/27 04:18:38;;;;;;;14.20;4.40;;;;;;;22.78;46.25;95476.09;5026589;28;20127;-77
2022/05/27 04:21:03;;;;;;;6.95;4.32;;;;;;;22.89;45.74;95468.75;5027672;28;20036;-77
2022/05/27 04:23:29;;;;;;;4.47;4.03;;;;;;;23.64;44.65;95476.34;5029981;28;20037;-77
2022/05/27 04:25:54;;;;;;;11.25;4.28;;;;;;;24.96;41.85;95478.53;5029641;28;20025;-77
2022/05/27 04:28:20;;;;;;;7.05;4.85;;;;;;;25.96;39.84;95472.59;5037392;28;20033;-78
2022/05/27 04:30:45;;;;;;;6.97;3.85;;;;;;;27.19;37.23;95468.31;5028076;28;20025;-78
2022/05/27 04:33:11;;;;;;;20.08;3.75;;;;;;;27.98;35.29;95465.97;5029893;28;20037;-78
2022/05/27 04:35:37;;;;;;;9.60;3.58;;;;;;;28.14;35.23;95466.16;5030469;28;20030;-79
2022/05/27 04:38:02;;;;;;;15.25;3.38;;;;;;;28.81;34.17;95467.78;5029351;28;20031;-76
2022/05/27 04:40:28;;;;;;;7.93;3.92;;;;;;;30.04;31.85;95466.63;5029282;28;20469;-78
2022/05/27 04:42:53;;;;;;;13.43;2.67;;;;;;;31.12;30.06;95463.03;5026911;28;20048;-76
2022/05/27 04:45:22;;;;;;;8.80;3.05;;;;;;;32.35;28.82;95463.47;5026384;28;20034;-76
2022/05/27 04:47:48;;;;;;;12.77;2.95;;;;;;;33.60;26.35;95471.81;5034027;28;20172;-77
2022/05/27 04:50:13;;;;;;;22.80;4.22;;;;;;;34.72;25.14;95460.13;5029869;28;20046;-77
2022/05/27 04:52:39;;;;;;;6.32;2.80;;;;;;;35.79;23.47;95467.19;5040160;28;20029;-77
2022/05/27 04:55:07;;;;;;;6.65;2.75;;;;;;;36.70;22.43;95469.94;5043708;28;20606;-77
2022/05/27 04:57:38;;;;;;;8.77;3.25;;;;;;;37.51;21.58;95461.13;5035178;28;20033;-77
2022/05/27 05:00:08;;;;;;;8.55;3.05;;;;;;;38.35;20.37;95464.03;5035178;28;20045;-78
2022/05/27 05:02:34;;;;;;;15.93;3.42;;;;;;;39.09;19.80;95462.09;5033070;28;20090;-79
2022/05/27 05:05:00;;;;;;;18.02;2.90;;;;;;;39.90;18.86;95457.88;5041297;28;20034;-79
2022/05/27 05:07:25;;;;;;;10.60;2.75;;;;;;;40.52;18.02;95457.94;5017033;28;20017;-79
2022/05/27 05:09:51;;;;;;;13.07;2.83;;;;;;;41.24;17.43;95458.47;5017192;28;20031;-80
2022/05/27 05:12:22;;;;;;;8.77;2.58;;;;;;;41.79;16.96;95454.44;5016239;28;20044;-77
2022/05/27 05:14:47;;;;;;;8.15;3.08;;;;;;;42.44;16.30;95454.72;5030998;28;20497;-78
2022/05/27 05:17:13;;;;;;;16.88;2.70;;;;;;;43.10;15.89;95450.94;5015310;28;20046;-79
2022/05/27 05:19:38;;;;;;;10.23;2.90;;;;;;;43.80;14.97;95452.34;5033189;28;20685;-77
2022/05/27 05:22:04;;;;;;;15.00;2.92;;;;;;;44.52;14.90;95462.91;5031083;28;20045;-78
2022/05/27 05:24:29;;;;;;;9.50;2.50;;;;;;;45.10;13.75;95460.72;5034160;28;20025;-77
2022/05/27 05:26:55;;;;;;;8.65;2.75;;;;;;;45.64;13.54;95459.78;5032372;28;20045;-78
2022/05/27 05:29:20;;;;;;;9.52;3.13;;;;;;;46.10;13.22;95457.41;5032185;28;20033;-77
2022/05/27 05:31:45;;;;;;;16.73;3.17;;;;;;;46.44;13.20;95450.28;5030995;28;20440;-78
2022/05/27 05:34:11;;;;;;;16.42;3.40;;;;;;;46.80;12.44;95455.97;5033445;28;20040;-79
2022/05/27 05:36:36;;;;;;;14.75;3.40;;;;;;;46.75;12.13;95448.28;5016554;28;20048;-78
2022/05/27 05:39:02;;;;;;;13.27;2.92;;;;;;;46.89;12.33;95452.50;5033054;28;20040;-78
2022/05/27 05:41:29;;;;;;;6.75;2.95;;;;;;;47.33;12.08;95447.56;5016099;28;20099;-77
2022/05/27 05:43:54;;;;;;;12.23;3.17;;;;;;;47.61;11.33;95451.16;5030869;28;20061;-77
2022/05/27 05:46:21;;;;;;;16.40;2.60;;;;;;;47.80;11.87;95446.41;5015110;28;20037;-76
2022/05/27 05:48:46;;;;;;;12.68;2.60;;;;;;;48.08;11.15;95442.41;5032080;28;20033;-76
2022/05/27 05:51:12;;;;;;;14.00;2.70;;;;;;;48.36;11.36;95447.91;5030738;28;20417;-76
2022/05/27 05:53:37;;;;;;;15.55;2.33;;;;;;;48.66;10.63;95446.94;5031923;28;20052;-76
2022/05/27 05:56:03;;;;;;;9.82;2.17;;;;;;;48.69;10.25;95443.22;5030308;28;20087;-76
2022/05/27 05:58:28;;;;;;;5.35;2.20;;;;;;;48.78;10.20;95447.16;5031713;28;20553;-77
2022/05/27 06:00:53;;;;;;;9.80;2.30;;;;;;;49.01;10.15;95446.47;5029951;28;20037;-76
2022/05/27 06:03:19;;;;;;;6.70;1.90;;;;;;;49.32;10.42;95445.41;5031276;28;20034;-78
2022/05/27 06:05:45;;;;;;;3.25;1.33;;;;;;;49.39;9.78;95445.81;5033159;28;20481;-76
2022/05/27 06:08:10;;;;;;;17.33;2.67;;;;;;;49.34;10.06;95445.69;5031356;28;20393;-78
2022/05/27 06:10:36;;;;;;;8.43;2.10;;;;;;;49.28;9.99;95443.53;5030411;28;20036;-76
2022/05/27 06:13:01;;;;;;;6.28;1.90;;;;;;;49.29;10.22;95445.09;4997220;28;20037;-76
2022/05/27 06:15:27;;;;;;;9.63;2.10;;;;;;;49.35;9.85;95447.22;5033317;28;20036;-79
2022/05/27 06:17:52;;;;;;;12.68;1.95;;;;;;;49.26;9.79;95434.94;5039097;23;20057;-80
2022/05/27 06:20:18;;;;;;;6.22;1.75;;;;;;;49.15;10.16;95445.78;5027555;28;20654;-79
2022/05/27 06:22:43;;;;;;;9.25;1.98;;;;;;;48.68;10.36;95436.19;5021577;28;20544;-79
2022/05/27 06:25:09;;;;;;;10.18;2.28;;;;;;;48.45;10.47;95436.84;5023893;28;20037;-80
2022/05/27 06:27:35;;;;;;;7.43;2.15;;;;;;;47.40;11.28;95436.25;5025882;28;20512;-80
2022/05/27 06:35:28;;;;;;;5.80;2.67;;;;;;;46.85;11.92;95443.59;5027043;28;20421;-80
2022/05/27 06:37:54;;;;;;;12.13;2.78;;;;;;;47.18;12.04;95435.59;5007353;28;20489;-80
2022/05/27 06:40:20;;;;;;;7.55;2.42;;;;;;;46.82;11.74;95437.03;5024560;28;20142;-80
2022/05/27 06:42:45;;;;;;;12.90;2.70;;;;;;;46.55;12.04;95428.66;5027180;28;20378;-80
2022/05/27 06:45:12;;;;;;;15.60;2.50;;;;;;;46.22;12.56;95429.06;5008596;28;20066;-80
2022/05/27 06:47:38;;;;;;;6.90;2.20;;;;;;;45.74;12.51;95414.66;5025145;28;20092;-78
2022/05/27 06:50:04;;;;;;;14.40;2.80;;;;;;;45.89;12.41;95411.38;4993819;28;20456;-78
2022/05/27 06:52:30;;;;;;;16.70;2.30;;;;;;;45.31;12.73;95412.59;5006122;28;20096;-80
2022/05/27 06:54:55;;;;;;;8.32;2.30;;;;;;;44.58;13.01;95407.03;5025439;28;20058;-79
2022/05/27 06:57:21;;;;;;;9.98;2.00;;;;;;;44.01;13.63;95411.41;5023456;28;20041;-80
2022/05/27 06:59:46;;;;;;;6.53;1.92;;;;;;;43.33;13.55;95406.97;5029118;28;20026;-80
2022/05/27 07:02:12;;;;;;;4.10;1.83;;;;;;;43.01;13.92;95409.72;5027490;28;20033;-80
2022/05/27 07:04:37;;;;;;;5.72;1.83;;;;;;;42.49;14.29;95413.25;5038549;28;20033;-79
2022/05/27 07:07:06;;;;;;;17.55;2.58;;;;;;;41.93;14.93;95410.44;5044770;28;20006;-78
2022/05/27 07:09:35;;;;;;;9.55;2.45;;;;;;;41.52;15.38;95399.91;4997597;28;20619;-79
2022/05/27 07:12:01;;;;;;;8.48;2.28;;;;;;;41.02;15.92;95393.34;5026170;28;20119;-79
2022/05/27 07:14:27;;;;;;;7.03;2.42;;;;;;;40.45;16.30;95383.25;5006890;28;20029;-78
2022/05/27 07:16:52;;;;;;;23.50;3.03;;;;;;;39.79;17.31;95383.69;5041339;28;20105;-78
2022/05/27 07:19:19;;;;;;;5.55;1.95;;;;;;;39.24;17.15;95384.63;5006575;28;20099;-78
2022/05/27 07:21:45;;;;;;;6.82;2.38;;;;;;;37.91;18.12;95385.81;5023772;28;20097;-79
2022/05/27 07:24:13;;;;;;;11.43;2.33;;;;;;;36.56;19.79;95383.97;5039059;28;20481;-78
2022/05/27 07:26:39;;;;;;;12.18;2.67;;;;;;;35.75;20.82;95387.94;5020944;28;20100;-79
2022/05/27 07:29:05;;;;;;;7.43;2.20;;;;;;;35.66;21.29;95379.41;4989003;28;20405;-79
2022/05/27 07:31:31;;;;;;;6.32;2.72;;;;;;;35.64;20.92;95375.53;5029115;28;20040;-79
2022/05/27 07:33:57;;;;;;;7.20;2.65;;;;;;;35.55;21.36;95369.66;5037691;28;20378;-81
2022/05/27 07:36:22;;;;;;;11.02;2.33;;;;;;;35.57;21.29;95362.72;5025078;28;20036;-78
2022/05/27 07:38:51;;;;;;;9.55;2.30;;;;;;;35.39;21.24;95367.25;5028102;28;20044;-78
2022/05/27 07:41:16;;;;;;;9.93;2.63;;;;;;;35.20;21.37;95352.84;5028410;28;20033;-79
2022/05/27 07:43:42;;;;;;;6.50;2.55;;;;;;;35.12;21.67;95351.22;5006136;28;20048;-79
2022/05/27 07:46:08;;;;;;;5.80;2.40;;;;;;;34.98;21.90;95348.41;5023469;28;20092;-78
2022/05/27 07:48:33;;;;;;;20.55;2.38;;;;;;;34.77;21.83;95354.41;5014103;28;20029;-80
2022/05/27 07:50:58;;;;;;;8.02;2.60;;;;;;;34.53;22.07;95355.78;5023788;28;20033;-79
2022/05/27 07:53:24;;;;;;;6.32;2.40;;;;;;;34.41;22.28;95355.25;5023193;28;20042;-80
2022/05/27 07:55:49;;;;;;;6.65;3.00;;;;;;;34.30;22.81;95357.81;5022582;28;20022;-78
2022/05/27 07:58:15;;;;;;;6.05;2.40;;;;;;;34.08;22.94;95350.66;5023345;28;20111;-77
2022/05/27 08:00:40;;;;;;;15.32;3.28;;;;;;;34.00;23.15;95345.16;5039668;28;20467;-78
2022/05/27 08:05:37;;;;;;;14.47;3.23;;;;;;;34.07;24.31;95343.72;5035386;23;20061;-78
2022/05/27 08:08:02;;;;;;;12.38;2.90;;;;;;;34.10;24.10;95338.34;5012297;28;20044;-78
2022/05/27 08:10:30;;;;;;;6.13;2.55;;;;;;;34.10;24.03;95349.13;5014167;28;20038;-78
2022/05/27 08:12:55;;;;;;;6.45;2.10;;;;;;;34.16;24.04;95342.25;5011865;28;20157;-78
2022/05/27 08:15:21;;;;;;;7.78;2.97;;;;;;;34.18;23.84;95345.38;4993276;28;20535;-78
2022/05/27 08:17:46;;;;;;;12.13;2.40;;;;;;;34.22;23.89;95340.00;5013988;28;20034;-79
2022/05/27 08:20:14;;;;;;;5.25;2.47;;;;;;;34.06;23.61;95340.25;5014467;28;20030;-79
2022/05/27 08:22:39;;;;;;;12.30;2.95;;;;;;;33.95;23.66;95337.41;5014116;28;20113;-80
2022/05/27 08:25:05;;;;;;;13.18;2.80;;;;;;;33.88;24.42;95325.78;4978749;28;20080;-78
2022/05/27 08:27:30;;;;;;;8.88;2.60;;;;;;;33.76;24.55;95328.69;4980443;28;20033;-78
2022/05/27 08:29:56;;;;;;;8.20;2.40;;;;;;;33.55;25.00;95329.22;5015659;28;20045;-79
2022/05/27 08:32:21;;;;;;;7.95;2.78;;;;;;;33.45;24.71;95327.16;5029144;28;20037;-77
2022/05/27 08:40:43;;;;;;;12.63;3.33;;;;;;;31.98;26.71;95317.81;5011356;28;20527;-79
2022/05/27 08:43:20;;;;;;;9.35;2.60;;;;;;;31.11;27.84;95317.19;5009679;28;20477;-79
2022/05/27 08:45:56;;;;;;;7.40;2.80;;;;;;;31.00;28.46;95308.88;5014915;28;20042;-78
2022/05/27 08:48:22;;;;;;;30.10;3.85;;;;;;;30.89;28.07;95305.16;5028137;28;20053;-78
2022/05/27 08:51:08;;;;;;;10.55;2.90;;;;;;;30.86;29.18;95307.78;5028889;28;20030;-78
2022/05/27 08:53:54;;;;;;;10.88;3.17;;;;;;;30.92;28.61;95309.84;4994450;28;20041;-77
2022/05/27 08:59:27;;;;;;;6.88;3.30;;;;;;;30.86;29.41;95305.09;5010225;28;20036;-79
2022/05/27 09:02:32;;;;;;;8.82;2.97;;;;;;;30.67;29.04;95305.81;5011312;28;20037;-79
2022/05/27 09:04:58;;;;;;;9.82;2.95;;;;;;;30.65;30.26;95300.00;4951635;28;20177;-79
2022/05/27 09:07:52;;;;;;;10.73;3.42;;;;;;;30.70;29.25;95297.84;4952298;29;20681;-79
2022/05/27 09:14:30;;;;;;;13.32;2.95;;;;;;;30.73;29.60;95291.75;4955718;28;20562;-79
2022/05/27 09:17:06;;;;;;;11.07;3.33;;;;;;;30.77;30.25;95298.00;4975723;28;20107;-79
2022/05/27 09:19:50;;;;;;;11.30;3.33;;;;;;;30.76;29.84;95291.09;5012034;28;20107;-79
2022/05/27 09:22:28;;;;;;;4.47;3.05;;;;;;;30.58;31.00;95287.16;5010516;28;20086;-79
2022/05/27 09:25:08;;;;;;;12.90;2.97;;;;;;;30.42;31.04;95287.16;5010461;28;20573;-76
2022/05/27 09:27:58;;;;;;;9.05;3.30;;;;;;;30.46;30.22;95281.91;5009758;28;20026;-77
2022/05/27 09:30:26;;;;;;;14.13;3.25;;;;;;;30.45;30.56;95283.03;5009860;28;20061;-75
2022/05/27 09:33:11;;;;;;;8.82;2.75;;;;;;;30.42;30.09;95281.78;5008697;28;20036;-78
2022/05/27 09:35:49;;;;;;;9.65;2.78;;;;;;;30.36;30.98;95271.69;5007411;28;20042;-75
2022/05/27 09:38:21;;;;;;;7.97;3.17;;;;;;;30.37;30.38;95263.28;5007869;28;20648;-75
2022/05/27 09:41:01;;;;;;;7.65;3.40;;;;;;;30.38;30.99;95266.75;5011198;28;20038;-75
2022/05/27 09:43:44;;;;;;;12.38;3.53;;;;;;;30.27;29.32;95257.69;5030937;28;20401;-75
2022/05/27 09:46:11;;;;;;;4.68;2.60;;;;;;;30.16;31.56;95262.78;5015739;28;20128;-76
2022/05/27 09:48:37;;;;;;;10.50;2.88;;;;;;;30.13;30.55;95255.41;4995974;28;20030;-75
2022/05/27 09:51:04;;;;;;;10.90;3.63;;;;;;;30.01;30.27;95255.47;5011234;28;20034;-75
2022/05/27 09:53:54;;;;;;;11.88;3.47;;;;;;;29.84;30.20;95246.63;5011192;28;20100;-76
2022/05/27 09:56:36;;;;;;;4.68;2.47;;;;;;;29.74;30.47;95241.75;5027759;28;20038;-77
2022/05/27 09:59:25;;;;;;;9.93;3.25;;;;;;;29.69;30.27;95239.31;5018904;28;20100;-76
2022/05/27 10:01:51;;;;;;;4.78;3.08;;;;;;;29.67;31.09;95228.16;4994392;28;20038;-76
2022/05/27 10:04:17;;;;;;;11.38;3.15;;;;;;;29.60;32.06;95230.66;4994613;28;20052;-76
2022/05/27 10:06:43;;;;;;;7.60;3.03;;;;;;;29.56;32.02;95224.41;5011131;28;20069;-76
2022/05/27 10:09:11;;;;;;;10.85;3.22;;;;;;;29.57;30.80;95232.13;4998022;28;20088;-76
2022/05/27 10:11:56;;;;;;;10.27;2.92;;;;;;;29.63;32.27;95224.63;4985180;28;20034;-75
2022/05/27 10:14:29;;;;;;;9.50;3.05;;;;;;;29.59;29.40;95229.09;5011000;28;20053;-76
2022/05/27 10:17:13;;;;;;;6.53;2.95;;;;;;;29.55;31.79;95217.50;5009931;28;20036;-76
2022/05/27 10:19:42;;;;;;;19.63;3.28;;;;;;;29.47;30.52;95215.78;5508442;22;20053;-74
2022/05/27 10:22:20;;;;;;;21.20;3.45;;;;;;;29.55;30.16;95210.25;5020378;28;20099;-75
2022/05/27 10:24:46;;;;;;;15.70;2.75;;;;;;;29.59;30.50;95211.09;5019669;28;20040;-78
2022/05/27 10:27:17;;;;;;;13.52;2.85;;;;;;;29.59;31.16;95207.66;5027485;28;20033;-76
2022/05/27 10:30:02;;;;;;;11.07;2.67;;;;;;;29.48;30.18;95206.59;5018297;28;20087;-76
2022/05/27 10:32:31;;;;;;;6.35;2.78;;;;;;;29.42;30.93;95207.94;5017239;28;20461;-76
2022/05/27 10:34:58;;;;;;;8.40;3.20;;;;;;;29.31;30.67;95196.94;5021250;28;20081;-77
2022/05/27 10:37:51;;;;;;;5.15;2.55;;;;;;;29.26;32.68;95200.63;5044524;28;20108;-76
2022/05/27 10:40:34;;;;;;;9.85;2.92;;;;;;;29.19;30.12;95179.00;5019167;28;20072;-76
2022/05/27 10:43:26;;;;;;;15.27;2.95;;;;;;;29.16;30.80;95189.63;5018547;28;20050;-76
2022/05/27 10:45:57;;;;;;;8.48;3.28;;;;;;;29.03;29.90;95183.53;5010944;28;21038;-76
2022/05/27 10:48:31;;;;;;;8.20;2.65;;;;;;;28.89;28.46;95180.47;5020984;28;20496;-76
2022/05/27 10:51:06;;;;;;;10.52;2.95;;;;;;;28.70;29.16;95178.34;5019472;28;20037;-76
2022/05/27 10:53:34;;;;;;;7.82;2.70;;;;;;;28.66;28.97;95178.25;5021028;28;20160;-75
2022/05/27 10:56:25;;;;;;;15.77;3.30;;;;;;;28.51;30.13;95176.28;5020472;28;20041;-75
2022/05/27 11:02:17;;;;;;;14.60;2.70;;;;;;;28.52;30.90;95166.34;5017605;28;20049;-76
2022/05/27 11:05:01;;;;;;;10.82;3.00;;;;;;;28.58;31.62;95152.41;5027716;28;20482;-76
2022/05/27 11:07:46;;;;;;;12.02;2.90;;;;;;;28.63;32.26;95149.47;5020715;28;20041;-76
2022/05/27 11:10:12;;;;;;;8.43;2.83;;;;;;;28.55;32.60;95150.41;5019498;28;20069;-76
2022/05/27 11:15:58;;;;;;;9.18;2.72;;;;;;;28.40;31.67;95143.06;5020234;28;20080;-76
2022/05/27 11:18:35;;;;;;;10.13;2.83;;;;;;;28.36;31.54;95140.28;5020563;28;20056;-76
2022/05/27 11:21:20;;;;;;;12.15;2.90;;;;;;;28.37;31.03;95128.47;5018948;28;20113;-76
2022/05/27 11:23:54;;;;;;;14.27;3.30;;;;;;;28.43;33.05;95134.38;5034946;28;20034;-76
2022/05/27 11:26:52;;;;;;;12.05;2.75;;;;;;;28.46;32.99;95131.00;5020136;28;20037;-76
2022/05/27 11:29:23;;;;;;;10.77;3.25;;;;;;;28.49;34.19;95119.66;5016982;28;20456;-76
2022/05/27 11:32:28;;;;;;;14.25;2.92;;;;;;;28.49;30.14;95108.97;5020392;28;20033;-76
2022/05/27 11:34:57;;;;;;;14.63;2.90;;;;;;;28.47;29.26;95105.81;5019754;28;20057;-76
2022/05/27 11:37:35;;;;;;;9.68;3.05;;;;;;;28.45;33.65;95102.69;5019835;28;20045;-76
2022/05/27 11:40:12;;;;;;;16.27;3.42;;;;;;;28.46;31.86;95101.59;5019956;28;20038;-76
2022/05/27 11:42:55;;;;;;;13.43;3.10;;;;;;;28.46;33.28;95090.88;5013302;28;20037;-75
2022/05/27 11:45:22;;;;;;;14.90;3.35;;;;;;;28.48;32.73;95090.56;5019721;28;20037;-76
2022/05/27 11:47:57;;;;;;;12.98;3.13;;;;;;;28.46;30.29;95093.56;5018292;28;20434;-76
2022/05/27 11:50:47;;;;;;;5.70;3.10;;;;;;;28.41;32.75;95085.78;5043434;28;20079;-76
2022/05/27 11:53:47;;;;;;;11.55;3.03;;;;;;;28.43;34.44;95074.75;5019444;28;20050;-75
2022/05/27 11:56:44;;;;;;;9.02;2.63;;;;;;;28.45;34.22;95075.16;5020192;28;20586;-75
2022/05/27 11:59:28;;;;;;;11.50;3.08;;;;;;;28.46;34.11;95077.50;5003132;28;20044;-74
2022/05/27 12:02:05;;;;;;;9.10;2.88;;;;;;;28.51;33.28;95074.63;5020039;28;20132;-75
2022/05/27 12:04:40;;;;;;;8.48;3.20;;;;;;;28.51;32.36;95063.91;5021364;28;20564;-75
2022/05/27 12:07:57;;;;;;;6.28;2.90;;;;;;;28.52;34.04;95060.13;5019191;28;20440;-74
2022/05/27 12:10:47;;;;;;;5.78;2.65;;;;;;;28.54;33.64;95057.88;5011428;28;20423;-75
2022/05/27 12:13:15;;;;;;;12.98;3.20;;;;;;;28.50;33.83;95051.66;5020112;28;20036;-74
2022/05/27 12:16:13;;;;;;;8.25;3.05;;;;;;;28.55;34.32;95047.94;5019289;28;20153;-75
2022/05/27 12:18:51;;;;;;;6.13;2.90;;;;;;;28.61;33.22;95046.56;5009672;28;20053;-75
2022/05/27 12:21:21;;;;;;;8.85;3.22;;;;;;;28.68;33.49;95039.53;5019199;28;20076;-75